Time;durP1;ratioP1;P1;durP2;ratioP2;P2;SDS_P1;SDS_P2;PMS_P1;PMS_P2;Temp;Humidity;BMP_temperature;BMP_pressure;BME280_temperature;BME280_humidity;BME280_pressure;Samples;Min_cycle;Max_cycle;Signal;HPM_P1;HPM_P2
2022/08/16 00:01:38;;;;;;;8.98;6.47;;;;;;;;;;5033896;28;20504;-80
2022/08/16 00:04:43;;;;;;;11.52;6.03;;;;;;;;;;5034317;28;20064;-79
2022/08/16 00:07:47;;;;;;;12.52;5.70;;;;;;;;;;5034261;28;20052;-80
2022/08/16 00:10:51;;;;;;;7.82;5.32;;;;;;;;;;5034137;28;20044;-80
2022/08/16 00:13:56;;;;;;;10.27;5.60;;;;;;;;;;5034045;28;20034;-80
2022/08/16 00:17:01;;;;;;;10.82;5.22;;;;;;;;;;5033241;28;20117;-80
2022/08/16 00:20:09;;;;;;;10.73;5.60;;;;;;;;;;5035216;28;20044;-80
2022/08/16 00:23:13;;;;;;;8.52;5.18;;;;;;;;;;5048414;28;20055;-80
2022/08/16 00:26:18;;;;;;;12.07;6.35;;;;;;;;;;5047901;28;20053;-80
2022/08/16 00:29:22;;;;;;;11.85;6.10;;;;;;;;;;5036061;28;20046;-80
2022/08/16 00:32:27;;;;;;;12.43;5.65;;;;;;;;;;5039055;28;20037;-79
2022/08/16 00:35:33;;;;;;;9.50;4.97;;;;;;;;;;5047466;28;20044;-80
2022/08/16 00:38:37;;;;;;;9.63;5.32;;;;;;;;;;5046180;28;20033;-80
2022/08/16 00:41:42;;;;;;;8.52;4.93;;;;;;;;;;5048266;28;20041;-80
2022/08/16 00:44:52;;;;;;;8.55;5.78;;;;;;;;;;5035831;28;20033;-80
2022/08/16 00:47:56;;;;;;;13.95;5.68;;;;;;;;;;5036961;28;20041;-80
2022/08/16 00:51:02;;;;;;;9.98;5.28;;;;;;;;;;5031973;28;20044;-80
2022/08/16 00:54:06;;;;;;;6.45;5.35;;;;;;;;;;5031752;28;20045;-80
2022/08/16 00:57:10;;;;;;;10.35;5.30;;;;;;;;;;5031347;28;20034;-80
2022/08/16 01:00:15;;;;;;;8.35;5.43;;;;;;;;;;5032237;28;20048;-80
2022/08/16 01:03:21;;;;;;;7.32;4.97;;;;;;;;;;5032266;28;20037;-78
2022/08/16 01:06:27;;;;;;;251.88;14.70;;;;;;;;;;5031225;28;20037;-78
2022/08/16 01:09:32;;;;;;;61.85;6.28;;;;;;;;;;5031690;28;20053;-77
2022/08/16 01:12:37;;;;;;;20.35;3.55;;;;;;;;;;5031382;28;20052;-78
2022/08/16 01:15:44;;;;;;;15.30;3.13;;;;;;;;;;5031062;28;20048;-77
2022/08/16 01:18:51;;;;;;;14.75;3.35;;;;;;;;;;5031374;28;20060;-77
2022/08/16 01:21:58;;;;;;;12.68;2.75;;;;;;;;;;5030489;28;20397;-77
2022/08/16 01:25:06;;;;;;;14.30;3.00;;;;;;;;;;5031165;28;20057;-78
2022/08/16 01:28:12;;;;;;;12.60;3.90;;;;;;;;;;5031211;28;20053;-78
2022/08/16 01:31:18;;;;;;;15.20;3.20;;;;;;;;;;5030308;28;20044;-77
2022/08/16 01:34:22;;;;;;;12.23;2.85;;;;;;;;;;5030882;28;20052;-79
2022/08/16 01:37:30;;;;;;;14.70;3.08;;;;;;;;;;5030323;28;20040;-76
2022/08/16 01:40:34;;;;;;;12.18;3.10;;;;;;;;;;5030223;28;20048;-76
2022/08/16 01:43:41;;;;;;;12.55;2.63;;;;;;;;;;5030590;28;20492;-76
2022/08/16 01:46:48;;;;;;;11.20;2.65;;;;;;;;;;5029913;28;20044;-77
2022/08/16 01:49:54;;;;;;;11.07;2.95;;;;;;;;;;5029984;28;20072;-75
2022/08/16 01:52:59;;;;;;;11.05;2.65;;;;;;;;;;5030996;28;20044;-75
2022/08/16 01:56:10;;;;;;;16.50;2.85;;;;;;;;;;5030124;28;20052;-75
2022/08/16 01:59:15;;;;;;;11.48;2.80;;;;;;;;;;5029897;28;20113;-77
2022/08/16 02:02:19;;;;;;;9.38;2.50;;;;;;;;;;5030970;28;20045;-78
2022/08/16 02:05:24;;;;;;;9.38;3.08;;;;;;;;;;5030609;28;20033;-79
2022/08/16 02:08:28;;;;;;;12.32;3.28;;;;;;;;;;5030579;28;20045;-76
2022/08/16 02:11:33;;;;;;;11.40;2.72;;;;;;;;;;5030049;28;20052;-77
2022/08/16 02:14:38;;;;;;;9.52;2.65;;;;;;;;;;5029810;28;20064;-78
2022/08/16 02:17:43;;;;;;;8.00;2.03;;;;;;;;;;5030017;28;20049;-76
2022/08/16 02:20:51;;;;;;;9.18;2.97;;;;;;;;;;5029889;28;20037;-79
2022/08/16 02:23:58;;;;;;;10.18;2.17;;;;;;;;;;5029960;28;20041;-80
2022/08/16 02:27:02;;;;;;;5.88;2.40;;;;;;;;;;5029570;28;20060;-78
2022/08/16 02:30:11;;;;;;;8.65;2.00;;;;;;;;;;5030745;28;20269;-78
2022/08/16 02:33:15;;;;;;;6.18;1.70;;;;;;;;;;5030560;28;20037;-80
2022/08/16 02:36:19;;;;;;;9.60;2.13;;;;;;;;;;5018352;28;20034;-80
2022/08/16 02:39:24;;;;;;;15.07;2.10;;;;;;;;;;5029797;28;20037;-78
2022/08/16 02:42:29;;;;;;;6.78;1.92;;;;;;;;;;5029725;28;20048;-78
2022/08/16 02:45:34;;;;;;;5.43;1.85;;;;;;;;;;5032161;28;20041;-78
2022/08/16 02:48:39;;;;;;;5.03;1.70;;;;;;;;;;5033600;28;20053;-80
2022/08/16 02:51:44;;;;;;;7.28;2.25;;;;;;;;;;5032749;28;20030;-78
2022/08/16 02:54:48;;;;;;;5.47;1.83;;;;;;;;;;5032931;28;20037;-79
2022/08/16 02:57:52;;;;;;;7.00;2.03;;;;;;;;;;5032973;28;20370;-78
2022/08/16 03:00:57;;;;;;;5.07;1.70;;;;;;;;;;5032783;28;20505;-78
2022/08/16 03:04:04;;;;;;;8.32;2.15;;;;;;;;;;5032940;28;20469;-78
2022/08/16 03:07:10;;;;;;;9.13;1.98;;;;;;;;;;5032861;28;20041;-79
2022/08/16 03:10:19;;;;;;;7.65;1.88;;;;;;;;;;5032569;28;20053;-79
2022/08/16 03:13:26;;;;;;;10.68;1.90;;;;;;;;;;5032389;28;20033;-79
2022/08/16 03:16:30;;;;;;;6.40;2.20;;;;;;;;;;5032637;28;20048;-78
2022/08/16 03:19:36;;;;;;;8.70;2.53;;;;;;;;;;5032792;28;20034;-78
2022/08/16 03:22:41;;;;;;;5.45;1.67;;;;;;;;;;5032519;28;20045;-78
2022/08/16 03:25:49;;;;;;;6.10;2.08;;;;;;;;;;5032328;28;20045;-78
2022/08/16 03:28:53;;;;;;;4.95;2.00;;;;;;;;;;5032178;28;20045;-78
2022/08/16 03:31:59;;;;;;;7.93;2.22;;;;;;;;;;5032221;28;20037;-78
2022/08/16 03:35:05;;;;;;;9.68;2.28;;;;;;;;;;5032195;28;20038;-78
2022/08/16 03:38:10;;;;;;;8.82;1.70;;;;;;;;;;5033258;28;20185;-79
2022/08/16 03:41:22;;;;;;;5.05;1.75;;;;;;;;;;5031853;28;20041;-79
2022/08/16 03:44:28;;;;;;;5.97;1.75;;;;;;;;;;5032377;28;20041;-79
2022/08/16 03:47:33;;;;;;;13.70;3.10;;;;;;;;;;5032065;28;20041;-78
2022/08/16 03:50:38;;;;;;;4.65;1.90;;;;;;;;;;5032168;28;20369;-79
2022/08/16 03:53:44;;;;;;;6.05;1.80;;;;;;;;;;5020985;28;20045;-79
2022/08/16 03:56:49;;;;;;;8.80;2.35;;;;;;;;;;5030832;28;20175;-79
2022/08/16 03:59:53;;;;;;;7.65;1.50;;;;;;;;;;5031750;28;20037;-79
2022/08/16 04:03:05;;;;;;;6.97;1.77;;;;;;;;;;5031660;28;20029;-80
2022/08/16 04:06:10;;;;;;;;;;;;;;;;;;5021004;28;20034;-79
2022/08/16 04:09:14;;;;;;;6.95;1.52;;;;;;;;;;5032371;28;19924;-79
2022/08/16 04:12:19;;;;;;;4.07;1.73;;;;;;;;;;5031359;28;20034;-80
2022/08/16 04:15:24;;;;;;;6.57;1.83;;;;;;;;;;5031774;28;20041;-79
2022/08/16 04:18:43;;;;;;;11.02;1.90;;;;;;;;;;5031554;28;20042;-80
2022/08/16 04:21:48;;;;;;;5.47;1.60;;;;;;;;;;5031394;28;20048;-79
2022/08/16 04:24:59;;;;;;;3.50;1.47;;;;;;;;;;5031215;28;20398;-79
2022/08/16 04:28:07;;;;;;;4.53;1.50;;;;;;;;;;5031189;28;20288;-80
2022/08/16 04:31:12;;;;;;;4.57;1.30;;;;;;;;;;5030974;28;20053;-80
2022/08/16 04:34:20;;;;;;;4.40;1.40;;;;;;;;;;5031162;28;20034;-79
2022/08/16 04:37:27;;;;;;;4.13;1.38;;;;;;;;;;5030933;28;20041;-80
2022/08/16 04:40:41;;;;;;;3.55;1.33;;;;;;;;;;5019893;28;20033;-79
2022/08/16 04:43:45;;;;;;;6.00;1.50;;;;;;;;;;5030726;28;20033;-80
2022/08/16 04:46:51;;;;;;;5.57;1.42;;;;;;;;;;5030621;28;20033;-80
2022/08/16 04:49:55;;;;;;;5.60;1.55;;;;;;;;;;5030410;28;20041;-80
2022/08/16 04:52:59;;;;;;;3.80;1.42;;;;;;;;;;5030959;28;20034;-79
2022/08/16 04:56:07;;;;;;;8.77;1.58;;;;;;;;;;5030716;28;20041;-80
2022/08/16 04:59:12;;;;;;;4.40;1.58;;;;;;;;;;5031020;28;20041;-80
2022/08/16 05:02:16;;;;;;;6.88;2.17;;;;;;;;;;5030540;28;20041;-81
2022/08/16 05:05:21;;;;;;;3.50;1.42;;;;;;;;;;5030527;28;20037;-81
2022/08/16 05:08:26;;;;;;;5.47;1.60;;;;;;;;;;5030289;28;20045;-81
2022/08/16 05:11:37;;;;;;;3.78;1.50;;;;;;;;;;5031454;28;20049;-80
2022/08/16 05:14:41;;;;;;;4.80;1.38;;;;;;;;;;5030770;28;20045;-81
2022/08/16 05:17:47;;;;;;;5.95;1.65;;;;;;;;;;5030645;28;20037;-81
2022/08/16 05:20:52;;;;;;;5.43;1.27;;;;;;;;;;5030464;28;20049;-80
2022/08/16 05:23:56;;;;;;;5.57;1.50;;;;;;;;;;5030618;28;20029;-81
2022/08/16 05:27:03;;;;;;;7.78;1.67;;;;;;;;;;5030480;28;20045;-81
2022/08/16 05:30:08;;;;;;;6.95;1.40;;;;;;;;;;5030007;28;20045;-81
2022/08/16 05:33:12;;;;;;;5.65;1.60;;;;;;;;;;5030161;28;20045;-80
2022/08/16 05:36:16;;;;;;;5.72;1.63;;;;;;;;;;5030228;28;20046;-80
2022/08/16 05:39:26;;;;;;;4.85;1.73;;;;;;;;;;5030126;28;20029;-80
2022/08/16 05:42:32;;;;;;;7.22;1.67;;;;;;;;;;5030933;28;20049;-80
2022/08/16 05:45:37;;;;;;;6.72;1.70;;;;;;;;;;5031002;28;20370;-80
2022/08/16 05:48:41;;;;;;;11.13;2.58;;;;;;;;;;5030049;28;20037;-80
2022/08/16 05:51:50;;;;;;;7.25;1.60;;;;;;;;;;5018531;28;20041;-80
2022/08/16 05:54:56;;;;;;;6.57;2.05;;;;;;;;;;5029794;28;20041;-80
2022/08/16 05:58:00;;;;;;;7.20;2.08;;;;;;;;;;5030530;28;20037;-80
2022/08/16 06:01:05;;;;;;;8.25;2.00;;;;;;;;;;5029596;28;20030;-80
2022/08/16 06:04:12;;;;;;;5.43;1.80;;;;;;;;;;5030049;28;20045;-79
2022/08/16 06:07:21;;;;;;;9.75;2.80;;;;;;;;;;5030093;28;20034;-80
2022/08/16 06:10:30;;;;;;;8.05;2.63;;;;;;;;;;5018493;28;20386;-80
2022/08/16 06:13:36;;;;;;;5.75;2.30;;;;;;;;;;5029592;28;20350;-80
2022/08/16 06:16:40;;;;;;;5.05;2.28;;;;;;;;;;5029860;28;20045;-80
2022/08/16 06:19:45;;;;;;;7.40;2.00;;;;;;;;;;5030686;28;20306;-80
2022/08/16 06:22:55;;;;;;;7.28;2.08;;;;;;;;;;5033667;28;20045;-80
2022/08/16 06:26:00;;;;;;;10.32;2.47;;;;;;;;;;5033373;28;20046;-81
2022/08/16 06:29:10;;;;;;;7.73;2.40;;;;;;;;;;5033351;28;20044;-80
2022/08/16 06:32:21;;;;;;;10.43;2.53;;;;;;;;;;5033288;28;20030;-81
2022/08/16 06:35:26;;;;;;;8.73;2.30;;;;;;;;;;5033165;28;20283;-81
2022/08/16 06:38:30;;;;;;;5.43;1.85;;;;;;;;;;5033280;28;20485;-81
2022/08/16 06:41:34;;;;;;;8.35;2.13;;;;;;;;;;5033093;28;20366;-79
2022/08/16 06:44:45;;;;;;;2.10;1.25;;;;;;;;;;5023144;28;20382;-80
2022/08/16 06:48:14;;;;;;;5.97;2.00;;;;;;;;;;5032798;28;20041;-80
2022/08/16 06:51:18;;;;;;;10.27;1.77;;;;;;;;;;5034134;28;20041;-79
2022/08/16 06:54:23;;;;;;;13.05;2.15;;;;;;;;;;5032780;28;20048;-80
2022/08/16 06:57:27;;;;;;;7.60;2.63;;;;;;;;;;5033150;28;20049;-80
2022/08/16 07:00:32;;;;;;;7.20;2.05;;;;;;;;;;5032977;28;20369;-80
2022/08/16 07:03:48;;;;;;;6.45;1.60;;;;;;;;;;5032752;28;20501;-80
2022/08/16 07:06:52;;;;;;;8.18;2.05;;;;;;;;;;5032790;28;20046;-80
2022/08/16 07:09:56;;;;;;;11.50;2.03;;;;;;;;;;5032598;28;20041;-81
2022/08/16 07:13:00;;;;;;;5.05;2.13;;;;;;;;;;5032985;28;20033;-81
2022/08/16 07:16:05;;;;;;;12.00;1.77;;;;;;;;;;5032464;28;20037;-80
2022/08/16 07:19:13;;;;;;;6.82;2.05;;;;;;;;;;5032333;28;20040;-81
2022/08/16 07:22:20;;;;;;;8.00;1.80;;;;;;;;;;5032726;28;20041;-81
2022/08/16 07:25:24;;;;;;;3.53;1.80;;;;;;;;;;5032355;28;20382;-81
2022/08/16 07:28:30;;;;;;;10.18;2.08;;;;;;;;;;5032502;28;20033;-81
2022/08/16 07:31:35;;;;;;;11.05;1.90;;;;;;;;;;5020542;28;20049;-81
2022/08/16 07:34:40;;;;;;;8.15;2.10;;;;;;;;;;5020766;28;20041;-81
2022/08/16 07:37:45;;;;;;;7.95;2.88;;;;;;;;;;5032573;28;20053;-81
2022/08/16 07:40:54;;;;;;;9.98;2.08;;;;;;;;;;5032458;28;20029;-81
2022/08/16 07:43:58;;;;;;;11.50;2.00;;;;;;;;;;5033717;28;20038;-81
2022/08/16 07:47:03;;;;;;;9.00;2.90;;;;;;;;;;5032152;28;20048;-81
2022/08/16 07:50:15;;;;;;;5.80;1.80;;;;;;;;;;5020933;28;20053;-81
2022/08/16 07:53:22;;;;;;;10.43;1.88;;;;;;;;;;5020884;28;20037;-81
2022/08/16 07:56:27;;;;;;;15.35;2.42;;;;;;;;;;5020726;28;20049;-81
2022/08/16 07:59:31;;;;;;;10.15;2.15;;;;;;;;;;5031748;28;20421;-81
2022/08/16 08:02:36;;;;;;;6.03;2.10;;;;;;;;;;5032506;28;20052;-81
2022/08/16 08:05:40;;;;;;;8.75;2.60;;;;;;;;;;5031473;28;20025;-81
2022/08/16 08:08:46;;;;;;;9.32;2.38;;;;;;;;;;5020251;28;20485;-80
2022/08/16 08:11:50;;;;;;;9.75;2.95;;;;;;;;;;5032249;28;20037;-81
2022/08/16 08:14:55;;;;;;;12.68;2.90;;;;;;;;;;5020490;28;20041;-81
2022/08/16 08:18:01;;;;;;;11.43;3.25;;;;;;;;;;5032254;28;20064;-81
2022/08/16 08:21:12;;;;;;;10.93;3.13;;;;;;;;;;5021115;28;20421;-81
2022/08/16 08:24:17;;;;;;;7.45;2.53;;;;;;;;;;5019716;28;20496;-81
2022/08/16 08:27:21;;;;;;;9.02;2.80;;;;;;;;;;5031473;28;20045;-81
2022/08/16 08:30:26;;;;;;;6.65;2.85;;;;;;;;;;5019521;28;20354;-80
2022/08/16 08:33:31;;;;;;;8.55;2.55;;;;;;;;;;5031145;28;20042;-81
2022/08/16 08:36:36;;;;;;;10.95;3.13;;;;;;;;;;5030985;28;20045;-81
2022/08/16 08:39:52;;;;;;;12.48;2.67;;;;;;;;;;5030675;28;20053;-81
2022/08/16 08:42:59;;;;;;;10.00;3.10;;;;;;;;;;5031496;28;20053;-81
2022/08/16 08:46:04;;;;;;;7.85;3.20;;;;;;;;;;5030478;28;20060;-81
2022/08/16 08:49:09;;;;;;;15.52;3.55;;;;;;;;;;5030541;28;20045;-81
2022/08/16 08:52:19;;;;;;;9.43;2.88;;;;;;;;;;5030975;28;20058;-81
2022/08/16 08:55:25;;;;;;;10.60;3.13;;;;;;;;;;5031028;28;20030;-80
2022/08/16 08:58:35;;;;;;;10.00;3.30;;;;;;;;;;5030642;28;20048;-81
2022/08/16 09:02:00;;;;;;;12.95;3.47;;;;;;;;;;5035627;28;20044;-81
2022/08/16 09:05:10;;;;;;;16.75;3.65;;;;;;;;;;5019057;28;20037;-81
2022/08/16 09:08:14;;;;;;;11.80;3.38;;;;;;;;;;5031384;28;20044;-81
2022/08/16 09:11:24;;;;;;;8.00;3.20;;;;;;;;;;5030558;28;20060;-81
2022/08/16 09:14:29;;;;;;;7.75;3.03;;;;;;;;;;5030609;28;20037;-81
2022/08/16 09:17:33;;;;;;;12.35;3.05;;;;;;;;;;5019274;28;20034;-81
2022/08/16 09:20:38;;;;;;;13.18;3.25;;;;;;;;;;5019071;28;20035;-80
2022/08/16 09:23:42;;;;;;;9.07;3.53;;;;;;;;;;5030452;28;20393;-81
2022/08/16 09:26:49;;;;;;;11.48;3.30;;;;;;;;;;5030356;28;20049;-80
2022/08/16 09:29:53;;;;;;;13.88;3.30;;;;;;;;;;5030916;28;20057;-80
2022/08/16 09:32:58;;;;;;;13.73;3.15;;;;;;;;;;5030723;28;20040;-80
2022/08/16 09:36:03;;;;;;;13.80;3.80;;;;;;;;;;5031353;28;20056;-79
2022/08/16 09:39:08;;;;;;;13.85;4.40;;;;;;;;;;5031022;28;20056;-79
2022/08/16 09:42:14;;;;;;;11.15;3.22;;;;;;;;;;5030931;28;20048;-79
2022/08/16 09:45:20;;;;;;;12.98;3.95;;;;;;;;;;5031155;28;20504;-80
2022/08/16 09:48:24;;;;;;;14.88;3.60;;;;;;;;;;5018603;28;20044;-79
2022/08/16 09:51:29;;;;;;;17.90;3.65;;;;;;;;;;5030737;28;20045;-79
2022/08/16 09:54:33;;;;;;;11.55;3.60;;;;;;;;;;5032965;28;20389;-79
2022/08/16 09:57:40;;;;;;;10.70;3.50;;;;;;;;;;5034388;28;20397;-79
2022/08/16 10:00:44;;;;;;;12.18;3.45;;;;;;;;;;5034576;28;20044;-79
2022/08/16 10:03:51;;;;;;;15.77;4.07;;;;;;;;;;5034874;28;20132;-78
2022/08/16 10:06:57;;;;;;;13.18;4.35;;;;;;;;;;5034853;28;20041;-80
2022/08/16 10:10:01;;;;;;;15.57;4.35;;;;;;;;;;5034305;28;20283;-80
2022/08/16 10:13:13;;;;;;;10.38;4.05;;;;;;;;;;5034668;28;20045;-80
2022/08/16 10:16:18;;;;;;;7.35;2.92;;;;;;;;;;5034710;28;20389;-80
2022/08/16 10:19:22;;;;;;;10.20;3.60;;;;;;;;;;5034399;28;20405;-80
2022/08/16 10:22:26;;;;;;;14.65;3.50;;;;;;;;;;5034061;28;20052;-79
2022/08/16 10:25:31;;;;;;;17.23;4.47;;;;;;;;;;5034480;28;20053;-78
2022/08/16 10:28:36;;;;;;;16.48;3.92;;;;;;;;;;5033042;28;20370;-80
2022/08/16 10:31:40;;;;;;;17.13;4.25;;;;;;;;;;5034297;28;20058;-82
2022/08/16 10:34:44;;;;;;;16.02;4.45;;;;;;;;;;5022329;28;20587;-81
2022/08/16 10:37:49;;;;;;;20.75;4.72;;;;;;;;;;5034304;28;20064;-80
2022/08/16 10:40:54;;;;;;;14.95;4.55;;;;;;;;;;5033973;28;20037;-80
2022/08/16 10:43:58;;;;;;;13.00;3.92;;;;;;;;;;5034119;28;20040;-79
2022/08/16 10:47:06;;;;;;;16.45;3.80;;;;;;;;;;5034507;28;20044;-79
2022/08/16 10:50:10;;;;;;;9.38;3.90;;;;;;;;;;5033631;28;20052;-80
2022/08/16 10:53:16;;;;;;;13.95;5.75;;;;;;;;;;5034050;28;20037;-80
2022/08/16 10:56:23;;;;;;;17.65;4.55;;;;;;;;;;5033620;28;20049;-80
2022/08/16 10:59:30;;;;;;;13.35;4.10;;;;;;;;;;5033646;28;20040;-80
2022/08/16 11:02:35;;;;;;;16.05;4.85;;;;;;;;;;5032942;28;20385;-80
2022/08/16 11:05:42;;;;;;;18.92;4.93;;;;;;;;;;5032422;28;20049;-80
2022/08/16 11:08:46;;;;;;;18.27;5.03;;;;;;;;;;5032475;28;20048;-81
2022/08/16 11:11:50;;;;;;;13.32;4.57;;;;;;;;;;5033538;28;20051;-80
2022/08/16 11:14:54;;;;;;;16.10;4.80;;;;;;;;;;5033736;28;20064;-80
2022/08/16 11:17:59;;;;;;;14.70;4.75;;;;;;;;;;5033472;28;20385;-80
2022/08/16 11:21:03;;;;;;;21.08;5.03;;;;;;;;;;5032498;28;20412;-80
2022/08/16 11:24:08;;;;;;;19.00;5.03;;;;;;;;;;5033412;28;20076;-81
2022/08/16 11:27:20;;;;;;;21.15;5.30;;;;;;;;;;5033189;28;20563;-82
2022/08/16 11:30:25;;;;;;;19.55;4.65;;;;;;;;;;5032970;28;20409;-81
2022/08/16 11:33:33;;;;;;;18.58;5.28;;;;;;;;;;5033288;28;20053;-81
2022/08/16 11:36:39;;;;;;;18.90;4.47;;;;;;;;;;5032251;28;20048;-80
2022/08/16 11:39:43;;;;;;;15.20;5.10;;;;;;;;;;5033156;28;20041;-80
2022/08/16 11:42:48;;;;;;;25.50;5.22;;;;;;;;;;5033021;28;20037;-80
2022/08/16 11:45:53;;;;;;;17.13;4.97;;;;;;;;;;5033110;28;20074;-80
2022/08/16 11:48:57;;;;;;;18.95;5.43;;;;;;;;;;5032501;28;20066;-80
2022/08/16 11:52:01;;;;;;;18.58;4.90;;;;;;;;;;5032737;28;20053;-80
2022/08/16 11:55:07;;;;;;;20.73;6.85;;;;;;;;;;5032670;28;20037;-81
2022/08/16 11:58:11;;;;;;;21.13;5.25;;;;;;;;;;5033059;28;20045;-80
2022/08/16 12:01:16;;;;;;;16.08;4.68;;;;;;;;;;5032731;28;20392;-80
2022/08/16 12:04:20;;;;;;;19.38;4.78;;;;;;;;;;5020382;28;20050;-80
2022/08/16 12:07:25;;;;;;;17.33;5.18;;;;;;;;;;5032597;28;20049;-81
2022/08/16 12:10:30;;;;;;;17.80;5.20;;;;;;;;;;5032294;28;20057;-80
2022/08/16 12:13:34;;;;;;;18.02;7.10;;;;;;;;;;5032478;28;20133;-80
2022/08/16 12:16:39;;;;;;;22.27;6.10;;;;;;;;;;5032232;28;20052;-81
2022/08/16 12:19:43;;;;;;;20.02;5.55;;;;;;;;;;5032555;28;20117;-81
2022/08/16 12:22:48;;;;;;;19.30;5.40;;;;;;;;;;5032599;28;20048;-81
2022/08/16 12:25:56;;;;;;;21.58;5.15;;;;;;;;;;5031938;28;20053;-80
2022/08/16 12:29:02;;;;;;;18.00;4.60;;;;;;;;;;5031999;28;20048;-80
2022/08/16 12:32:07;;;;;;;25.45;5.97;;;;;;;;;;5031130;28;20052;-80
2022/08/16 12:35:13;;;;;;;25.13;5.93;;;;;;;;;;5031947;28;20516;-81
2022/08/16 12:38:17;;;;;;;21.75;6.10;;;;;;;;;;5032033;28;20048;-81
2022/08/16 12:41:22;;;;;;;17.73;5.15;;;;;;;;;;5030884;28;20052;-80
2022/08/16 12:44:27;;;;;;;22.02;5.32;;;;;;;;;;5031557;28;20527;-80
2022/08/16 12:50:54;;;;;;;24.58;6.45;;;;;;;;;;5031379;28;20588;-80
2022/08/16 12:53:59;;;;;;;23.55;6.07;;;;;;;;;;5031692;28;20044;-81
2022/08/16 12:57:05;;;;;;;17.70;4.88;;;;;;;;;;5031530;28;20044;-80
2022/08/16 13:00:12;;;;;;;16.17;4.25;;;;;;;;;;5030702;28;20045;-80
2022/08/16 13:03:17;;;;;;;17.50;4.40;;;;;;;;;;5031260;28;20550;-80
2022/08/16 13:06:22;;;;;;;22.58;6.53;;;;;;;;;;5031229;28;20040;-81
2022/08/16 13:09:28;;;;;;;19.15;5.50;;;;;;;;;;5031038;28;20056;-80
2022/08/16 13:12:33;;;;;;;19.90;5.15;;;;;;;;;;5031507;28;20052;-81
2022/08/16 13:15:38;;;;;;;22.85;5.55;;;;;;;;;;5019109;28;20048;-80
2022/08/16 13:18:42;;;;;;;13.63;4.93;;;;;;;;;;5031382;28;20040;-81
2022/08/16 13:21:47;;;;;;;21.50;5.55;;;;;;;;;;5031270;28;20127;-80
2022/08/16 13:24:53;;;;;;;21.42;5.88;;;;;;;;;;5030943;28;20048;-79
2022/08/16 13:27:58;;;;;;;18.42;4.90;;;;;;;;;;5031140;28;20500;-79
2022/08/16 13:31:02;;;;;;;16.38;5.28;;;;;;;;;;5029760;28;20056;-80
2022/08/16 13:34:06;;;;;;;18.13;4.70;;;;;;;;;;5031176;28;20512;-80
2022/08/16 13:37:11;;;;;;;16.17;4.70;;;;;;;;;;5030877;28;20041;-80
2022/08/16 13:40:16;;;;;;;21.38;4.85;;;;;;;;;;5030929;28;20492;-81
2022/08/16 13:43:21;;;;;;;35.15;6.70;;;;;;;;;;5030025;28;20044;-80
2022/08/16 13:46:26;;;;;;;20.70;5.40;;;;;;;;;;5030061;28;20036;-80
2022/08/16 13:49:30;;;;;;;23.15;5.75;;;;;;;;;;5030896;28;20045;-81
2022/08/16 13:52:35;;;;;;;20.38;5.75;;;;;;;;;;5030664;28;20068;-80
2022/08/16 13:55:39;;;;;;;25.20;5.70;;;;;;;;;;5030877;28;20040;-80
2022/08/16 13:58:43;;;;;;;24.20;5.30;;;;;;;;;;5030835;28;20041;-80
2022/08/16 14:01:52;;;;;;;15.63;5.28;;;;;;;;;;5030782;28;20041;-80
2022/08/16 14:04:56;;;;;;;17.13;4.72;;;;;;;;;;5030697;28;20040;-80
2022/08/16 14:08:00;;;;;;;22.15;5.60;;;;;;;;;;5030693;28;20044;-80
2022/08/16 14:11:05;;;;;;;12.30;4.70;;;;;;;;;;5029547;28;20049;-80
2022/08/16 14:14:09;;;;;;;22.38;5.68;;;;;;;;;;5031226;28;20153;-80
2022/08/16 14:17:13;;;;;;;19.85;5.97;;;;;;;;;;5018152;28;20049;-80
2022/08/16 14:20:18;;;;;;;23.65;5.47;;;;;;;;;;5029606;28;20040;-80
2022/08/16 14:23:23;;;;;;;18.08;5.20;;;;;;;;;;5030538;28;20045;-80
2022/08/16 14:26:27;;;;;;;18.42;5.00;;;;;;;;;;5030031;28;20425;-80
2022/08/16 14:29:32;;;;;;;18.83;5.45;;;;;;;;;;5030768;28;20044;-80
2022/08/16 14:32:36;;;;;;;30.70;5.90;;;;;;;;;;5030082;28;20420;-80
2022/08/16 14:35:40;;;;;;;20.88;5.30;;;;;;;;;;5018103;28;20040;-79
2022/08/16 14:38:45;;;;;;;22.27;6.30;;;;;;;;;;5030701;28;20045;-80
2022/08/16 14:41:49;;;;;;;17.23;5.13;;;;;;;;;;5032982;28;20420;-81
2022/08/16 14:44:54;;;;;;;23.23;5.32;;;;;;;;;;5033788;28;20045;-80
2022/08/16 14:47:59;;;;;;;19.02;5.65;;;;;;;;;;5033469;28;20508;-80
2022/08/16 14:51:04;;;;;;;14.75;4.88;;;;;;;;;;5032762;28;20054;-80
2022/08/16 14:54:08;;;;;;;18.92;5.53;;;;;;;;;;5032793;28;20048;-80
2022/08/16 14:57:13;;;;;;;18.38;5.43;;;;;;;;;;5032927;28;20052;-80
2022/08/16 15:00:17;;;;;;;16.40;5.20;;;;;;;;;;5021121;28;20040;-80
2022/08/16 15:03:22;;;;;;;20.65;5.63;;;;;;;;;;5021410;28;20044;-80
2022/08/16 15:06:27;;;;;;;17.02;5.25;;;;;;;;;;5032608;28;20041;-80
2022/08/16 15:09:33;;;;;;;22.50;5.70;;;;;;;;;;5033361;28;20405;-80
2022/08/16 15:12:38;;;;;;;26.45;6.10;;;;;;;;;;5033623;28;20068;-80
2022/08/16 15:15:43;;;;;;;29.95;6.07;;;;;;;;;;5033566;28;20480;-79
2022/08/16 15:18:48;;;;;;;21.30;6.13;;;;;;;;;;5032425;28;20121;-79
2022/08/16 15:21:52;;;;;;;18.23;5.60;;;;;;;;;;5033194;28;20052;-80
2022/08/16 15:24:57;;;;;;;18.90;5.60;;;;;;;;;;5033428;28;20500;-79
2022/08/16 15:28:02;;;;;;;25.63;6.40;;;;;;;;;;5033322;28;20052;-80
2022/08/16 15:31:08;;;;;;;20.73;5.53;;;;;;;;;;5032869;28;20048;-79
2022/08/16 15:34:12;;;;;;;15.50;4.95;;;;;;;;;;5032838;28;20052;-79
2022/08/16 15:37:16;;;;;;;18.42;5.05;;;;;;;;;;5033124;28;20397;-80
2022/08/16 15:40:21;;;;;;;17.15;5.30;;;;;;;;;;5032537;28;20045;-79
2022/08/16 15:43:26;;;;;;;24.17;5.55;;;;;;;;;;5031703;28;20121;-80
2022/08/16 15:46:30;;;;;;;23.55;5.70;;;;;;;;;;5032693;28;20049;-81
2022/08/16 15:49:37;;;;;;;25.20;6.25;;;;;;;;;;5032120;28;20052;-80
2022/08/16 15:52:41;;;;;;;16.40;5.43;;;;;;;;;;5031126;28;20041;-81
2022/08/16 15:55:46;;;;;;;15.88;4.55;;;;;;;;;;5030518;28;20601;-79
2022/08/16 15:58:50;;;;;;;28.98;5.78;;;;;;;;;;5031158;28;20049;-79
2022/08/16 16:01:56;;;;;;;20.60;5.72;;;;;;;;;;5031567;28;20060;-79
2022/08/16 16:05:01;;;;;;;22.60;6.05;;;;;;;;;;5031367;28;20040;-79
2022/08/16 16:08:06;;;;;;;23.63;5.43;;;;;;;;;;5031157;28;20045;-79
2022/08/16 16:11:10;;;;;;;18.88;5.72;;;;;;;;;;5031478;28;20520;-79
2022/08/16 16:14:15;;;;;;;18.63;5.72;;;;;;;;;;5032291;28;20068;-79
2022/08/16 16:17:19;;;;;;;23.77;5.97;;;;;;;;;;5031908;28;20397;-80
2022/08/16 16:20:25;;;;;;;21.92;5.93;;;;;;;;;;5031823;28;20049;-79
2022/08/16 16:23:31;;;;;;;29.50;7.30;;;;;;;;;;5032405;28;20052;-79
2022/08/16 16:26:36;;;;;;;23.13;6.35;;;;;;;;;;5032012;28;20504;-79
2022/08/16 16:29:40;;;;;;;28.55;5.43;;;;;;;;;;5030669;28;20492;-79
2022/08/16 16:32:45;;;;;;;27.58;5.82;;;;;;;;;;5032055;28;20388;-79
2022/08/16 16:35:51;;;;;;;25.08;6.20;;;;;;;;;;5019598;28;20057;-79
2022/08/16 16:38:55;;;;;;;23.90;5.80;;;;;;;;;;5031973;28;20041;-79
2022/08/16 16:42:00;;;;;;;34.42;6.65;;;;;;;;;;5032321;28;20056;-79
2022/08/16 16:45:05;;;;;;;35.28;6.00;;;;;;;;;;5030672;28;20040;-79
2022/08/16 16:48:09;;;;;;;22.02;6.05;;;;;;;;;;5031680;28;20052;-79
2022/08/16 16:51:14;;;;;;;25.00;6.43;;;;;;;;;;5031329;28;20062;-79
2022/08/16 16:54:19;;;;;;;28.60;6.20;;;;;;;;;;5031590;28;20040;-79
2022/08/16 17:00:46;;;;;;;23.73;5.97;;;;;;;;;;5030314;28;20512;-79
2022/08/16 17:03:50;;;;;;;30.17;6.57;;;;;;;;;;5018741;28;20049;-79
2022/08/16 17:06:55;;;;;;;27.65;5.93;;;;;;;;;;5031373;28;20045;-79
2022/08/16 17:10:00;;;;;;;28.17;6.93;;;;;;;;;;5030377;28;20049;-80
2022/08/16 17:13:04;;;;;;;19.38;6.15;;;;;;;;;;5030216;28;20045;-79
2022/08/16 17:16:08;;;;;;;29.63;7.32;;;;;;;;;;5031031;28;20032;-79
2022/08/16 17:19:13;;;;;;;26.00;6.15;;;;;;;;;;5031192;28;20048;-79
2022/08/16 17:22:19;;;;;;;27.67;6.90;;;;;;;;;;5030608;28;20072;-79
2022/08/16 17:25:27;;;;;;;26.83;5.97;;;;;;;;;;5031816;28;20065;-78
2022/08/16 17:28:31;;;;;;;26.60;6.00;;;;;;;;;;5031024;28;20044;-79
2022/08/16 17:31:35;;;;;;;29.10;6.80;;;;;;;;;;5020352;28;20057;-79
2022/08/16 17:34:43;;;;;;;27.67;5.85;;;;;;;;;;5030977;28;20443;-79
2022/08/16 17:37:48;;;;;;;24.85;6.28;;;;;;;;;;5020174;28;20052;-79
2022/08/16 17:40:54;;;;;;;23.88;5.72;;;;;;;;;;5030286;28;20048;-79
2022/08/16 17:43:59;;;;;;;25.02;6.75;;;;;;;;;;5030653;28;20048;-79
2022/08/16 17:47:03;;;;;;;24.45;6.50;;;;;;;;;;5031333;28;20052;-79
2022/08/16 17:50:07;;;;;;;31.40;7.60;;;;;;;;;;5030940;28;20408;-79
2022/08/16 17:53:14;;;;;;;28.30;6.90;;;;;;;;;;5030264;28;20048;-78
2022/08/16 17:56:19;;;;;;;27.25;6.68;;;;;;;;;;5030694;28;20078;-79
2022/08/16 17:59:24;;;;;;;26.50;6.07;;;;;;;;;;5030594;28;20045;-77
2022/08/16 18:02:30;;;;;;;26.73;7.25;;;;;;;;;;5030496;28;20492;-77
2022/08/16 18:05:37;;;;;;;26.95;7.47;;;;;;;;;;5030921;28;20049;-78
2022/08/16 18:08:42;;;;;;;35.70;8.45;;;;;;;;;;5030501;28;20035;-77
2022/08/16 18:11:46;;;;;;;39.08;7.97;;;;;;;;;;5030383;28;20048;-77
2022/08/16 18:14:50;;;;;;;28.65;6.88;;;;;;;;;;5030803;28;20523;-77
2022/08/16 18:17:54;;;;;;;30.73;7.22;;;;;;;;;;5033994;28;20439;-77
2022/08/16 18:24:23;;;;;;;28.88;6.97;;;;;;;;;;5033130;28;20488;-77
2022/08/16 18:27:31;;;;;;;36.70;7.80;;;;;;;;;;5033384;28;20040;-77
2022/08/16 18:30:35;;;;;;;33.10;7.03;;;;;;;;;;5034033;28;20068;-77